Wetterdaten: Woche 04.04.16 - 10.04.16 (KW14)
Datum Zeit Temp. A. Feuchte A. Luftdruck Regen Wind Richtung Taupunkt Windchill Windben
04.04.2016 00:00 10,5 C 91 % 1008,1 hPa 0,0 l/m 0,2 km/h (0 Bft) N 9,2 C 10,5 C 0,9 km/h (0 Bft)
04.04.2016 01:00 10,4 C 92 % 1007,9 hPa 0,0 l/m 0,9 km/h (0 Bft) SW 9,1 C 10,4 C 2,8 km/h (1 Bft)
04.04.2016 02:00 10,6 C 92 % 1007,9 hPa 0,0 l/m 0,3 km/h (0 Bft) S 9,4 C 10,6 C 1,7 km/h (1 Bft)
04.04.2016 03:00 10,4 C 92 % 1007,7 hPa 0,0 l/m 0,3 km/h (0 Bft) S 9,2 C 10,4 C 1,7 km/h (1 Bft)
04.04.2016 04:00 10,2 C 94 % 1007,6 hPa 0,0 l/m 0,7 km/h (0 Bft) O-NO 9,2 C 10,2 C 2,7 km/h (1 Bft)
04.04.2016 05:00 9,8 C 93 % 1007,6 hPa 0,0 l/m 0,1 km/h (0 Bft) O 8,7 C 9,8 C 0,4 km/h (0 Bft)
04.04.2016 06:00 8,8 C 94 % 1007,5 hPa 0,0 l/m 0,1 km/h (0 Bft) O 7,9 C 8,8 C 0,6 km/h (0 Bft)
04.04.2016 07:00 7,8 C 96 % 1008,0 hPa 0,0 l/m 0,5 km/h (0 Bft) O 7,1 C 7,8 C 2,3 km/h (1 Bft)
04.04.2016 08:00 10,0 C 93 % 1008,1 hPa 0,0 l/m 0,5 km/h (0 Bft) O-NO 8,9 C 10,0 C 2,2 km/h (1 Bft)
04.04.2016 09:00 11,9 C 89 % 1008,5 hPa 0,0 l/m 0,8 km/h (0 Bft) N 10,1 C 11,9 C 1,7 km/h (1 Bft)
04.04.2016 10:00 13,9 C 80 % 1008,8 hPa 0,0 l/m 3,8 km/h (1 Bft) O-NO 10,5 C 13,8 C 6,4 km/h (2 Bft)
04.04.2016 11:00 13,2 C 80 % 1009,0 hPa 0,0 l/m 3,7 km/h (1 Bft) O 9,9 C 13,2 C 6,9 km/h (2 Bft)
04.04.2016 12:00 12,5 C 78 % 1008,8 hPa 0,0 l/m 4,1 km/h (1 Bft) O 8,8 C 12,5 C 7,8 km/h (2 Bft)
04.04.2016 13:00 13,5 C 71 % 1008,5 hPa 0,0 l/m 3,5 km/h (1 Bft) O 8,2 C 13,5 C 6,7 km/h (2 Bft)
04.04.2016 14:00 13,6 C 68 % 1008,2 hPa 0,0 l/m 2,9 km/h (1 Bft) O-NO 7,8 C 13,6 C 5,4 km/h (1 Bft)
04.04.2016 15:00 14,5 C 66 % 1007,7 hPa 0,0 l/m 1,7 km/h (1 Bft) O 8,2 C 14,5 C 3,9 km/h (1 Bft)
04.04.2016 16:00 14,0 C 69 % 1007,3 hPa 0,0 l/m 1,6 km/h (1 Bft) W-NW 8,4 C 14,0 C 5,1 km/h (1 Bft)
04.04.2016 17:00 13,5 C 71 % 1007,0 hPa 0,0 l/m 1,9 km/h (1 Bft) W-SW 8,4 C 13,5 C 5,3 km/h (1 Bft)
04.04.2016 18:00 13,0 C 73 % 1006,9 hPa 0,0 l/m 2,1 km/h (1 Bft) W 8,3 C 13,0 C 4,3 km/h (1 Bft)
04.04.2016 19:00 12,4 C 75 % 1007,0 hPa 0,0 l/m 1,2 km/h (1 Bft) W-NW 8,1 C 12,4 C 4,1 km/h (1 Bft)
04.04.2016 20:00 11,6 C 78 % 1007,0 hPa 0,0 l/m 0,6 km/h (0 Bft) W-SW 7,9 C 11,6 C 2,3 km/h (1 Bft)
04.04.2016 21:00 10,8 C 82 % 1007,2 hPa 0,0 l/m 0,5 km/h (0 Bft) O-SO 7,9 C 10,8 C 1,9 km/h (1 Bft)
04.04.2016 22:00 9,2 C 87 % 1006,7 hPa 0,0 l/m 0,6 km/h (0 Bft) O-SO 7,1 C 9,2 C 2,8 km/h (1 Bft)
04.04.2016 23:00 8,6 C 88 % 1006,3 hPa 0,0 l/m 1,1 km/h (1 Bft) SW 6,8 C 8,6 C 3,7 km/h (1 Bft)
05.04.2016 00:00 8,6 C 88 % 1006,0 hPa 0,0 l/m 1,3 km/h (1 Bft) W-SW 6,7 C 8,6 C 3,5 km/h (1 Bft)
05.04.2016 01:00 8,5 C 88 % 1005,6 hPa 0,0 l/m 1,4 km/h (1 Bft) SW 6,7 C 8,5 C 5,5 km/h (2 Bft)
05.04.2016 02:00 7,5 C 90 % 1005,4 hPa 0,0 l/m 0,2 km/h (0 Bft) S-SW 6,0 C 7,5 C 1,3 km/h (1 Bft)
05.04.2016 03:00 6,7 C 93 % 1005,2 hPa 0,0 l/m 0,3 km/h (0 Bft) S-SW 5,6 C 6,7 C 0,8 km/h (0 Bft)
05.04.2016 04:00 6,6 C 95 % 1005,3 hPa 0,0 l/m 0,3 km/h (0 Bft) S-SW 5,8 C 6,6 C 2,0 km/h (1 Bft)
05.04.2016 05:00 7,1 C 94 % 1005,9 hPa 0,0 l/m 0,3 km/h (0 Bft) S 6,2 C 7,1 C 1,1 km/h (1 Bft)
05.04.2016 06:00 7,0 C 94 % 1005,9 hPa 0,0 l/m 0,0 km/h (0 Bft) S 6,2 C 7,0 C 0,4 km/h (0 Bft)
05.04.2016 07:00 6,8 C 95 % 1006,1 hPa 0,0 l/m 0,3 km/h (0 Bft) S 6,0 C 6,8 C 1,3 km/h (1 Bft)
05.04.2016 08:00 7,9 C 94 % 1006,3 hPa 0,0 l/m 0,1 km/h (0 Bft) S 6,9 C 7,9 C 0,5 km/h (0 Bft)
05.04.2016 09:00 10,4 C 87 % 1006,5 hPa 0,0 l/m 0,8 km/h (0 Bft) S 8,3 C 10,4 C 2,5 km/h (1 Bft)
05.04.2016 10:00 12,6 C 78 % 1007,2 hPa 0,0 l/m 1,7 km/h (1 Bft) NW 8,9 C 12,6 C 3,9 km/h (1 Bft)
05.04.2016 11:00 14,6 C 67 % 1007,6 hPa 0,0 l/m 3,3 km/h (1 Bft) S 8,5 C 14,6 C 8,3 km/h (2 Bft)
05.04.2016 12:00 14,5 C 65 % 1007,7 hPa 0,0 l/m 4,8 km/h (1 Bft) O 7,9 C 14,5 C 10,5 km/h (2 Bft)
05.04.2016 13:00 14,3 C 66 % 1008,0 hPa 0,0 l/m 3,9 km/h (1 Bft) O-SO 8,0 C 14,3 C 10,5 km/h (2 Bft)
05.04.2016 14:00 13,2 C 73 % 1008,4 hPa 0,0 l/m 5,2 km/h (1 Bft) O 8,5 C 13,1 C 13,2 km/h (3 Bft)
05.04.2016 15:00 12,0 C 81 % 1008,7 hPa 0,0 l/m 5,2 km/h (1 Bft) O 8,7 C 11,8 C 11,3 km/h (2 Bft)
05.04.2016 16:00 10,5 C 88 % 1008,9 hPa 0,5 l/m 4,6 km/h (1 Bft) O 8,6 C 10,5 C 12,0 km/h (2 Bft)
05.04.2016 17:00 9,8 C 90 % 1009,1 hPa 1,3 l/m 5,5 km/h (2 Bft) O-NO 8,2 C 9,7 C 14,5 km/h (3 Bft)
05.04.2016 18:00 9,5 C 91 % 1009,3 hPa 0,5 l/m 5,2 km/h (1 Bft) O 8,1 C 9,2 C 11,8 km/h (2 Bft)
05.04.2016 19:00 9,2 C 93 % 1009,8 hPa 1,3 l/m 3,0 km/h (1 Bft) O 8,2 C 9,2 C 7,6 km/h (2 Bft)
05.04.2016 20:00 9,0 C 95 % 1010,8 hPa 2,0 l/m 1,3 km/h (1 Bft) O 8,2 C 9,0 C 3,8 km/h (1 Bft)
05.04.2016 21:00 8,9 C 95 % 1011,6 hPa 1,5 l/m 0,2 km/h (0 Bft) NO 8,1 C 8,9 C 1,1 km/h (1 Bft)
05.04.2016 22:00 8,5 C 95 % 1012,4 hPa 1,0 l/m 0,9 km/h (0 Bft) NO 7,7 C 8,5 C 2,8 km/h (1 Bft)
05.04.2016 23:00 7,9 C 95 % 1012,9 hPa 0,3 l/m 1,2 km/h (1 Bft) O 7,2 C 7,9 C 3,2 km/h (1 Bft)
06.04.2016 00:00 7,6 C 96 % 1013,1 hPa 0,3 l/m 1,1 km/h (1 Bft) O 7,0 C 7,6 C 3,2 km/h (1 Bft)
06.04.2016 01:00 7,4 C 96 % 1013,5 hPa 0,5 l/m 2,1 km/h (1 Bft) O 6,8 C 7,4 C 5,6 km/h (2 Bft)
06.04.2016 02:00 7,2 C 96 % 1013,5 hPa 0,0 l/m 1,8 km/h (1 Bft) O 6,6 C 7,2 C 4,6 km/h (1 Bft)
06.04.2016 03:00 7,0 C 96 % 1013,5 hPa 0,0 l/m 1,4 km/h (1 Bft) O 6,4 C 7,0 C 3,3 km/h (1 Bft)
06.04.2016 04:00 6,9 C 96 % 1013,7 hPa 0,0 l/m 1,7 km/h (1 Bft) O-NO 6,3 C 6,9 C 4,0 km/h (1 Bft)
06.04.2016 05:00 6,8 C 96 % 1013,8 hPa 0,0 l/m 2,0 km/h (1 Bft) O 6,2 C 6,8 C 4,6 km/h (1 Bft)
06.04.2016 06:00 6,9 C 96 % 1013,9 hPa 0,8 l/m 2,4 km/h (1 Bft) N-NO 6,3 C 6,9 C 5,2 km/h (1 Bft)
06.04.2016 07:00 6,5 C 96 % 1014,2 hPa 0,0 l/m 2,8 km/h (1 Bft) O 5,9 C 6,5 C 6,1 km/h (2 Bft)
06.04.2016 08:00 7,3 C 95 % 1014,6 hPa 0,0 l/m 2,5 km/h (1 Bft) NO 6,6 C 7,3 C 5,2 km/h (1 Bft)
06.04.2016 09:00 8,2 C 93 % 1014,8 hPa 0,0 l/m 2,8 km/h (1 Bft) NO 7,2 C 8,2 C 5,6 km/h (2 Bft)
06.04.2016 10:00 9,7 C 86 % 1015,1 hPa 0,0 l/m 4,3 km/h (1 Bft) O-NO 7,5 C 9,7 C 10,6 km/h (2 Bft)
06.04.2016 11:00 11,0 C 79 % 1014,9 hPa 0,0 l/m 5,5 km/h (2 Bft) O-NO 7,5 C 11,0 C 12,2 km/h (2 Bft)
06.04.2016 12:00 11,2 C 76 % 1014,8 hPa 0,0 l/m 3,6 km/h (1 Bft) O-NO 7,1 C 11,2 C 7,8 km/h (2 Bft)
06.04.2016 13:00 11,8 C 70 % 1014,5 hPa 0,0 l/m 5,3 km/h (1 Bft) O-NO 6,4 C 11,6 C 13,3 km/h (3 Bft)
06.04.2016 14:00 13,2 C 63 % 1013,9 hPa 0,0 l/m 5,8 km/h (2 Bft) NO 6,3 C 13,0 C 13,9 km/h (3 Bft)
06.04.2016 15:00 13,5 C 64 % 1013,4 hPa 0,0 l/m 5,3 km/h (1 Bft) O 6,8 C 13,5 C 12,3 km/h (2 Bft)
06.04.2016 16:00 14,4 C 57 % 1012,5 hPa 0,0 l/m 6,3 km/h (2 Bft) O-NO 5,8 C 14,1 C 14,9 km/h (3 Bft)
06.04.2016 17:00 13,9 C 48 % 1011,9 hPa 0,0 l/m 8,5 km/h (2 Bft) N-NO 3,2 C 12,8 C 17,5 km/h (3 Bft)
06.04.2016 18:00 13,3 C 52 % 1011,6 hPa 0,0 l/m 7,0 km/h (2 Bft) O-NO 3,5 C 12,6 C 13,9 km/h (3 Bft)
06.04.2016 19:00 11,8 C 60 % 1011,4 hPa 0,0 l/m 4,6 km/h (1 Bft) O-NO 4,2 C 11,7 C 12,9 km/h (3 Bft)
06.04.2016 20:00 10,7 C 62 % 1011,5 hPa 0,0 l/m 3,3 km/h (1 Bft) O 3,6 C 10,7 C 8,2 km/h (2 Bft)
06.04.2016 21:00 10,0 C 64 % 1011,8 hPa 0,0 l/m 1,7 km/h (1 Bft) O 3,4 C 10,0 C 4,0 km/h (1 Bft)
06.04.2016 22:00 8,1 C 73 % 1011,9 hPa 0,0 l/m 1,0 km/h (0 Bft) O 3,4 C 8,1 C 3,5 km/h (1 Bft)
06.04.2016 23:00 6,9 C 78 % 1011,8 hPa 0,0 l/m 1,5 km/h (1 Bft) O-NO 3,3 C 6,9 C 3,5 km/h (1 Bft)
07.04.2016 00:00 6,8 C 79 % 1011,8 hPa 0,0 l/m 0,7 km/h (0 Bft) O-NO 3,4 C 6,8 C 2,2 km/h (1 Bft)
07.04.2016 01:00 6,5 C 82 % 1011,5 hPa 0,0 l/m 1,1 km/h (1 Bft) O-SO 3,7 C 6,5 C 4,3 km/h (1 Bft)
07.04.2016 02:00 7,5 C 80 % 1011,0 hPa 0,0 l/m 1,2 km/h (1 Bft) O-NO 4,2 C 7,5 C 3,4 km/h (1 Bft)
07.04.2016 03:00 7,2 C 81 % 1010,7 hPa 0,0 l/m 1,2 km/h (1 Bft) O-NO 4,1 C 7,2 C 3,6 km/h (1 Bft)
07.04.2016 04:00 7,7 C 77 % 1010,3 hPa 0,0 l/m 3,1 km/h (1 Bft) O-NO 4,0 C 7,7 C 8,3 km/h (2 Bft)
07.04.2016 05:00 7,5 C 78 % 1010,2 hPa 0,0 l/m 3,4 km/h (1 Bft) O-NO 3,8 C 7,5 C 9,0 km/h (2 Bft)
07.04.2016 06:00 7,4 C 78 % 1010,3 hPa 0,0 l/m 4,4 km/h (1 Bft) O-NO 3,8 C 7,3 C 10,1 km/h (2 Bft)
07.04.2016 07:00 6,9 C 85 % 1010,8 hPa 0,3 l/m 4,9 km/h (1 Bft) O 4,4 C 6,8 C 14,2 km/h (3 Bft)
07.04.2016 08:00 5,8 C 88 % 1011,4 hPa 0,3 l/m 3,7 km/h (1 Bft) O-NO 3,9 C 5,8 C 10,5 km/h (2 Bft)
07.04.2016 09:00 5,3 C 89 % 1011,7 hPa 0,0 l/m 3,0 km/h (1 Bft) O 3,6 C 5,3 C 6,9 km/h (2 Bft)
07.04.2016 10:00 5,3 C 90 % 1012,2 hPa 0,3 l/m 4,0 km/h (1 Bft) O-NO 3,7 C 5,3 C 9,5 km/h (2 Bft)
07.04.2016 11:00 6,0 C 86 % 1012,5 hPa 0,0 l/m 5,1 km/h (1 Bft) O-NO 3,7 C 5,9 C 11,5 km/h (2 Bft)
07.04.2016 12:00 6,4 C 83 % 1012,4 hPa 0,0 l/m 5,0 km/h (1 Bft) O-NO 3,7 C 6,3 C 11,9 km/h (2 Bft)
07.04.2016 13:00 6,8 C 81 % 1012,5 hPa 0,0 l/m 4,7 km/h (1 Bft) O 3,7 C 6,8 C 11,8 km/h (2 Bft)
07.04.2016 14:00 6,9 C 76 % 1012,5 hPa 0,0 l/m 4,9 km/h (1 Bft) NO 2,9 C 6,8 C 12,4 km/h (2 Bft)
07.04.2016 15:00 6,6 C 74 % 1012,4 hPa 0,0 l/m 4,7 km/h (1 Bft) NO 2,3 C 6,4 C 9,6 km/h (2 Bft)
07.04.2016 16:00 6,9 C 73 % 1012,1 hPa 0,0 l/m 3,6 km/h (1 Bft) O-NO 2,4 C 6,9 C 9,1 km/h (2 Bft)
07.04.2016 17:00 7,4 C 71 % 1011,8 hPa 0,0 l/m 3,3 km/h (1 Bft) O 2,6 C 7,4 C 9,2 km/h (2 Bft)
07.04.2016 18:00 7,2 C 71 % 1011,9 hPa 0,0 l/m 2,0 km/h (1 Bft) N-NO 2,3 C 7,2 C 4,8 km/h (1 Bft)
07.04.2016 19:00 6,1 C 75 % 1012,3 hPa 0,0 l/m 1,6 km/h (1 Bft) O-NO 1,9 C 6,1 C 4,1 km/h (1 Bft)
07.04.2016 20:00 4,2 C 84 % 1012,9 hPa 0,0 l/m 0,6 km/h (0 Bft) SO 1,6 C 4,2 C 1,8 km/h (1 Bft)
07.04.2016 21:00 2,8 C 88 % 1013,5 hPa 0,0 l/m 0,1 km/h (0 Bft) SO 1,0 C 2,8 C 0,7 km/h (0 Bft)
07.04.2016 22:00 1,4 C 92 % 1013,7 hPa 0,0 l/m 0,0 km/h (0 Bft) SO 0,2 C 1,4 C 0,5 km/h (0 Bft)
07.04.2016 23:00 1,0 C 94 % 1014,1 hPa 0,0 l/m 0,1 km/h (0 Bft) SO 0,1 C 1,0 C 1,0 km/h (0 Bft)
08.04.2016 00:00 1,3 C 94 % 1014,1 hPa 0,0 l/m 0,1 km/h (0 Bft) SO 0,5 C 1,3 C 0,5 km/h (0 Bft)
08.04.2016 01:00 1,7 C 94 % 1013,8 hPa 0,0 l/m 0,1 km/h (0 Bft) SO 0,8 C 1,7 C 0,7 km/h (0 Bft)
08.04.2016 02:00 1,5 C 94 % 1013,5 hPa 0,0 l/m 0,2 km/h (0 Bft) SO 0,6 C 1,5 C 1,2 km/h (1 Bft)
08.04.2016 03:00 1,0 C 94 % 1013,5 hPa 0,0 l/m 0,1 km/h (0 Bft) SO 0,1 C 1,0 C 0,7 km/h (0 Bft)
08.04.2016 04:00 0,1 C 95 % 1013,2 hPa 0,0 l/m 0,0 km/h (0 Bft) SO -0,7 C 0,1 C 0,1 km/h (0 Bft)
08.04.2016 05:00 -0,5 C 95 % 1012,9 hPa 0,0 l/m 0,0 km/h (0 Bft) SO -1,1 C -0,5 C 0,0 km/h (0 Bft)
08.04.2016 06:00 -0,3 C 96 % 1012,9 hPa 0,0 l/m 0,0 km/h (0 Bft) SO -0,9 C -0,3 C 0,0 km/h (0 Bft)
08.04.2016 07:00 0,1 C 96 % 1013,3 hPa 0,0 l/m 0,1 km/h (0 Bft) SO -0,5 C 0,1 C 0,4 km/h (0 Bft)
08.04.2016 08:00 1,2 C 96 % 1013,4 hPa 0,0 l/m 0,1 km/h (0 Bft) SO 0,6 C 1,2 C 1,1 km/h (1 Bft)
08.04.2016 09:00 3,3 C 89 % 1013,3 hPa 0,0 l/m 0,7 km/h (0 Bft) SO 1,7 C 3,3 C 2,4 km/h (1 Bft)
08.04.2016 10:00 7,2 C 65 % 1013,1 hPa 0,0 l/m 2,7 km/h (1 Bft) W-NW 1,1 C 7,2 C 7,1 km/h (2 Bft)
08.04.2016 11:00 7,9 C 59 % 1012,7 hPa 0,0 l/m 2,4 km/h (1 Bft) S-SW 0,4 C 7,9 C 5,7 km/h (2 Bft)
08.04.2016 12:00 8,4 C 59 % 1012,5 hPa 0,0 l/m 2,2 km/h (1 Bft) SW 0,8 C 8,4 C 5,0 km/h (1 Bft)
08.04.2016 13:00 8,7 C 54 % 1012,0 hPa 0,0 l/m 2,6 km/h (1 Bft) N -0,1 C 8,7 C 6,7 km/h (2 Bft)
08.04.2016 14:00 9,0 C 53 % 1011,4 hPa 0,0 l/m 2,6 km/h (1 Bft) O-NO -0,1 C 9,0 C 6,0 km/h (2 Bft)
08.04.2016 15:00 8,9 C 56 % 1011,1 hPa 0,0 l/m 3,5 km/h (1 Bft) O-NO 0,5 C 8,9 C 7,5 km/h (2 Bft)
08.04.2016 16:00 8,5 C 57 % 1010,8 hPa 0,0 l/m 2,2 km/h (1 Bft) O-NO 0,5 C 8,5 C 5,6 km/h (2 Bft)
08.04.2016 17:00 8,3 C 59 % 1010,5 hPa 0,0 l/m 1,6 km/h (1 Bft) NW 0,7 C 8,3 C 4,6 km/h (1 Bft)
08.04.2016 18:00 8,0 C 59 % 1010,4 hPa 0,0 l/m 1,8 km/h (1 Bft) NW 0,6 C 8,0 C 4,3 km/h (1 Bft)
08.04.2016 19:00 7,5 C 66 % 1010,5 hPa 0,0 l/m 0,2 km/h (0 Bft) W-NW 1,5 C 7,5 C 1,7 km/h (1 Bft)
08.04.2016 20:00 6,0 C 78 % 1010,7 hPa 0,0 l/m 0,1 km/h (0 Bft) W-NW 2,5 C 6,0 C 1,1 km/h (1 Bft)
08.04.2016 21:00 5,1 C 82 % 1010,9 hPa 0,0 l/m 0,1 km/h (0 Bft) W-NW 2,3 C 5,1 C 1,0 km/h (0 Bft)
08.04.2016 22:00 3,8 C 86 % 1010,7 hPa 0,0 l/m 0,0 km/h (0 Bft) W-NW 1,6 C 3,8 C 0,4 km/h (0 Bft)
08.04.2016 23:00 2,4 C 89 % 1010,4 hPa 0,0 l/m 0,0 km/h (0 Bft) W-NW 0,8 C 2,4 C 0,4 km/h (0 Bft)
09.04.2016 00:00 1,8 C 90 % 1010,2 hPa 0,0 l/m 0,0 km/h (0 Bft) W-NW 0,4 C 1,8 C 0,3 km/h (0 Bft)
09.04.2016 01:00 1,1 C 92 % 1009,9 hPa 0,0 l/m 0,0 km/h (0 Bft) W-NW -0,0 C 1,1 C 0,0 km/h (0 Bft)
09.04.2016 02:00 0,6 C 93 % 1009,6 hPa 0,0 l/m 0,0 km/h (0 Bft) W-NW -0,3 C 0,6 C 0,0 km/h (0 Bft)
09.04.2016 03:00 0,4 C 94 % 1009,3 hPa 0,0 l/m 0,0 km/h (0 Bft) W-NW -0,5 C 0,4 C 0,0 km/h (0 Bft)
09.04.2016 04:00 0,6 C 94 % 1009,0 hPa 0,0 l/m 0,0 km/h (0 Bft) W-NW -0,3 C 0,6 C 0,5 km/h (0 Bft)
09.04.2016 05:00 1,1 C 93 % 1008,7 hPa 0,0 l/m 0,0 km/h (0 Bft) W-NW 0,1 C 1,1 C 0,3 km/h (0 Bft)
09.04.2016 06:00 1,3 C 93 % 1008,6 hPa 0,0 l/m 0,0 km/h (0 Bft) W-NW 0,4 C 1,3 C 0,1 km/h (0 Bft)
09.04.2016 07:00 1,8 C 93 % 1008,4 hPa 0,0 l/m 0,0 km/h (0 Bft) W-NW 0,8 C 1,8 C 0,1 km/h (0 Bft)
09.04.2016 08:00 3,3 C 90 % 1008,4 hPa 0,0 l/m 0,0 km/h (0 Bft) W-NW 1,8 C 3,3 C 0,3 km/h (0 Bft)
09.04.2016 09:00 4,5 C 83 % 1008,2 hPa 0,0 l/m 0,5 km/h (0 Bft) W-NW 2,0 C 4,5 C 1,5 km/h (1 Bft)
09.04.2016 10:00 6,2 C 71 % 1008,3 hPa 0,0 l/m 0,9 km/h (0 Bft) W-SW 1,4 C 6,2 C 3,1 km/h (1 Bft)
09.04.2016 11:00 8,1 C 63 % 1008,1 hPa 0,0 l/m 2,6 km/h (1 Bft) SW 1,6 C 8,1 C 5,6 km/h (2 Bft)
09.04.2016 12:00 9,0 C 59 % 1008,0 hPa 0,0 l/m 3,9 km/h (1 Bft) W 1,3 C 9,0 C 8,8 km/h (2 Bft)
09.04.2016 13:00 9,6 C 60 % 1007,8 hPa 0,0 l/m 4,1 km/h (1 Bft) W-NW 2,2 C 9,6 C 10,2 km/h (2 Bft)
09.04.2016 14:00 9,7 C 61 % 1007,7 hPa 0,0 l/m 3,7 km/h (1 Bft) W-NW 2,7 C 9,7 C 8,6 km/h (2 Bft)
09.04.2016 15:00 9,2 C 64 % 1007,8 hPa 0,0 l/m 3,4 km/h (1 Bft) NW 2,7 C 9,2 C 7,9 km/h (2 Bft)
09.04.2016 16:00 8,9 C 64 % 1007,9 hPa 0,0 l/m 2,6 km/h (1 Bft) W 2,5 C 8,9 C 6,8 km/h (2 Bft)
09.04.2016 17:00 8,6 C 64 % 1008,1 hPa 0,0 l/m 2,8 km/h (1 Bft) W-NW 2,2 C 8,6 C 7,3 km/h (2 Bft)
09.04.2016 18:00 8,3 C 64 % 1008,4 hPa 0,0 l/m 1,8 km/h (1 Bft) W-NW 1,8 C 8,3 C 4,0 km/h (1 Bft)
09.04.2016 19:00 7,9 C 67 % 1008,7 hPa 0,0 l/m 1,3 km/h (1 Bft) W 2,1 C 7,9 C 4,5 km/h (1 Bft)
09.04.2016 20:00 7,3 C 70 % 1009,3 hPa 0,0 l/m 0,8 km/h (0 Bft) SW 2,1 C 7,3 C 3,0 km/h (1 Bft)
09.04.2016 21:00 6,9 C 73 % 1009,7 hPa 0,0 l/m 0,2 km/h (0 Bft) W-SW 2,3 C 6,9 C 1,5 km/h (1 Bft)
09.04.2016 22:00 6,1 C 79 % 1009,9 hPa 0,0 l/m 0,1 km/h (0 Bft) W-SW 2,7 C 6,1 C 1,1 km/h (0 Bft)
09.04.2016 23:00 5,5 C 84 % 1009,9 hPa 0,0 l/m 0,0 km/h (0 Bft) W-SW 2,9 C 5,5 C 0,3 km/h (0 Bft)
10.04.2016 00:00 5,3 C 86 % 1010,0 hPa 0,0 l/m 0,0 km/h (0 Bft) W-SW 3,0 C 5,3 C 0,4 km/h (0 Bft)
10.04.2016 01:00 5,2 C 87 % 1010,2 hPa 0,0 l/m 0,2 km/h (0 Bft) W-SW 3,2 C 5,2 C 0,8 km/h (0 Bft)
10.04.2016 02:00 5,0 C 88 % 1010,2 hPa 0,0 l/m 0,3 km/h (0 Bft) W-SW 3,3 C 5,0 C 0,8 km/h (0 Bft)
10.04.2016 03:00 4,8 C 89 % 1010,2 hPa 0,0 l/m 0,0 km/h (0 Bft) W-SW 3,3 C 4,8 C 0,6 km/h (0 Bft)
10.04.2016 04:00 4,7 C 90 % 1010,4 hPa 0,0 l/m 0,0 km/h (0 Bft) W-SW 3,2 C 4,7 C 0,0 km/h (0 Bft)
10.04.2016 05:00 4,4 C 92 % 1010,6 hPa 0,0 l/m 0,1 km/h (0 Bft) W-SW 3,2 C 4,4 C 0,4 km/h (0 Bft)
10.04.2016 06:00 4,2 C 92 % 1010,8 hPa 0,0 l/m 0,0 km/h (0 Bft) W-SW 3,0 C 4,2 C 0,0 km/h (0 Bft)
10.04.2016 07:00 3,7 C 93 % 1010,8 hPa 0,0 l/m 0,0 km/h (0 Bft) W-SW 2,6 C 3,7 C 0,0 km/h (0 Bft)
10.04.2016 08:00 5,6 C 88 % 1010,8 hPa 0,0 l/m 0,6 km/h (0 Bft) W-SW 3,9 C 5,6 C 1,7 km/h (1 Bft)
10.04.2016 09:00 8,8 C 77 % 1011,0 hPa 0,0 l/m 1,7 km/h (1 Bft) NW 5,1 C 8,8 C 3,2 km/h (1 Bft)
10.04.2016 10:00 10,6 C 68 % 1010,9 hPa 0,0 l/m 2,6 km/h (1 Bft) W 5,0 C 10,6 C 5,0 km/h (1 Bft)
10.04.2016 11:00 11,6 C 63 % 1010,9 hPa 0,0 l/m 3,4 km/h (1 Bft) W-NW 4,9 C 11,6 C 6,2 km/h (2 Bft)
10.04.2016 12:00 12,0 C 62 % 1010,8 hPa 0,0 l/m 3,6 km/h (1 Bft) NW 4,9 C 12,0 C 8,0 km/h (2 Bft)
10.04.2016 13:00 12,9 C 56 % 1010,5 hPa 0,0 l/m 2,8 km/h (1 Bft) SW 4,4 C 12,9 C 7,1 km/h (2 Bft)
10.04.2016 14:00 13,5 C 53 % 1010,0 hPa 0,0 l/m 3,1 km/h (1 Bft) W 4,2 C 13,5 C 7,4 km/h (2 Bft)
10.04.2016 15:00 13,7 C 52 % 1009,8 hPa 0,0 l/m 3,8 km/h (1 Bft) W 4,0 C 13,7 C 8,7 km/h (2 Bft)
10.04.2016 16:00 14,4 C 50 % 1009,4 hPa 0,0 l/m 4,1 km/h (1 Bft) NW 4,1 C 14,4 C 11,0 km/h (2 Bft)
10.04.2016 17:00 14,6 C 49 % 1009,2 hPa 0,0 l/m 4,5 km/h (1 Bft) W-NW 4,0 C 14,6 C 11,3 km/h (2 Bft)
10.04.2016 18:00 14,0 C 51 % 1009,2 hPa 0,0 l/m 3,8 km/h (1 Bft) W-NW 4,0 C 13,9 C 8,8 km/h (2 Bft)
10.04.2016 19:00 12,4 C 56 % 1009,2 hPa 0,0 l/m 2,7 km/h (1 Bft) W-NW 3,8 C 12,4 C 7,5 km/h (2 Bft)
10.04.2016 20:00 10,2 C 65 % 1009,7 hPa 0,0 l/m 0,8 km/h (0 Bft) SW 3,8 C 10,2 C 2,9 km/h (1 Bft)
10.04.2016 21:00 8,0 C 74 % 1010,1 hPa 0,0 l/m 0,1 km/h (0 Bft) SW 3,6 C 8,0 C 1,1 km/h (1 Bft)
10.04.2016 22:00 5,4 C 83 % 1010,4 hPa 0,0 l/m 0,0 km/h (0 Bft) SW 2,7 C 5,4 C 0,5 km/h (0 Bft)
10.04.2016 23:00 3,8 C 88 % 1010,8 hPa 0,0 l/m 0,0 km/h (0 Bft) SW 1,9 C 3,8 C 0,6 km/h (0 Bft)
Min-Datum _ 08.04.16 10.04.16 05.04.16 - 10.04.16 - 08.04.16 08.04.16 10.04.16
_ Min-Zeit 05:30 17:00 03:45 - 23:00 - 05:30 05:30 23:00
Minimum _ -0,6 C 47 % 1004,9 hPa - 0,0 km/h (0 Bft) - -1,3 C -0,6 C 0,0 km/h (0 Bft)
Max-Datum _ 10.04.16 08.04.16 06.04.16 05.04.16 06.04.16 - 04.04.16 10.04.16 06.04.16
_ Max-Zeit 17:05 06:55 11:00 20:00 18:06 - 10:39 17:05 17:10
Maximum _ 15,3 C 97 % 1015,2 hPa 2,0 l/m 12,9 km/h
O-NO (3 Bft)
- 11,0 C 15,3 C 24,1 km/h
NO (4 Bft)
Durchschnitt _ 7,9 C 80 % 1010,3 hPa #10,7 l/m 1,9 km/h (1 Bft) O 4,4 C 7,9 C 4,9 km/h (1 Bft)